Time;durP1;ratioP1;P1;durP2;ratioP2;P2;SDS_P1;SDS_P2;PMS_P1;PMS_P2;Temp;Humidity;BMP_temperature;BMP_pressure;BME280_temperature;BME280_humidity;BME280_pressure;Samples;Min_cycle;Max_cycle;Signal;HPM_P1;HPM_P2
2023/05/05 00:01:24;;;;;;;;;0.00;0.00;;;;;18.65;52.83;101244.72;5119872;27;46679;-70
2023/05/05 00:03:50;;;;;;;;;0.67;0.67;;;;;17.87;52.92;101122.13;5119663;27;45481;-70
2023/05/05 00:06:16;;;;;;;;;0.00;0.00;;;;;18.59;53.14;101250.78;5120071;27;45561;-69
2023/05/05 00:11:16;;;;;;;;;1.00;1.00;;;;;18.36;53.11;101208.59;5334948;22;46501;-70
2023/05/05 00:13:41;;;;;;;;;1.00;1.00;;;;;18.45;53.58;101223.66;5018553;28;55037;-72
2023/05/05 00:16:07;;;;;;;;;1.67;1.67;;;;;18.36;53.55;101208.59;5018537;28;45367;-73
2023/05/05 00:18:32;;;;;;;;;0.00;0.00;;;;;18.38;53.46;101221.88;5018664;28;45234;-70
2023/05/05 00:20:58;;;;;;;;;0.00;0.00;;;;;18.42;53.85;101234.81;5018112;28;45752;-72
2023/05/05 00:23:23;;;;;;;;;0.25;0.25;;;;;18.28;53.72;101215.94;5018423;28;45487;-72
2023/05/05 00:25:48;;;;;;;;;2.33;1.00;;;;;18.39;54.01;101240.53;5000399;28;45917;-72
2023/05/05 00:28:14;;;;;;;;;2.00;1.25;;;;;17.73;53.76;101126.47;5000460;28;45359;-72
2023/05/05 00:30:39;;;;;;;;;1.00;0.75;;;;;18.38;53.99;101227.25;5000268;28;46683;-71
2023/05/05 00:33:05;;;;;;;;;1.50;0.00;;;;;18.37;54.28;101230.97;5017981;28;45326;-71
2023/05/05 00:35:30;;;;;;;;;0.00;0.00;;;;;18.29;54.12;101218.44;5018129;28;45403;-71
2023/05/05 00:37:56;;;;;;;;;1.00;1.00;;;;;18.18;54.36;101203.56;5000499;28;45206;-70
2023/05/05 00:40:22;;;;;;;;;1.33;1.33;;;;;18.24;54.38;101204.69;5000623;28;46218;-72
2023/05/05 00:42:51;;;;;;;;;1.00;1.00;;;;;18.29;54.24;101210.38;4999874;28;45561;-71
2023/05/05 00:45:18;;;;;;;;;2.00;2.00;;;;;18.27;54.91;101209.72;5018347;28;45492;-71
2023/05/05 00:47:52;;;;;;;;;1.00;1.00;;;;;18.27;54.49;101220.47;5000845;28;45415;-71
2023/05/05 00:50:26;;;;;;;;;0.00;0.00;;;;;18.23;54.68;101222.72;5018430;28;45312;-71
2023/05/05 00:52:54;;;;;;;;;1.50;1.00;;;;;17.74;54.71;101160.41;5016534;28;46013;-72
2023/05/05 00:55:20;;;;;;;;;1.00;1.00;;;;;18.00;55.00;101200.34;5000317;28;45344;-72
2023/05/05 00:57:46;;;;;;;;;1.00;1.00;;;;;18.10;55.12;101233.25;5018176;28;45521;-71
2023/05/05 01:00:12;;;;;;;;;1.00;1.00;;;;;18.08;55.28;101232.59;5000210;28;46620;-69
2023/05/05 01:02:38;;;;;;;;;2.00;1.00;;;;;18.01;55.65;101225.41;4999814;28;45512;-73
2023/05/05 01:05:04;;;;;;;;;2.00;1.00;;;;;17.41;55.60;101124.81;4999617;28;45331;-73
2023/05/05 01:07:42;;;;;;;;;0.50;0.50;;;;;18.03;56.03;101220.72;5017931;28;45424;-71
2023/05/05 01:10:31;;;;;;;;;0.00;0.00;;;;;17.53;56.17;101152.97;5017792;28;45384;-72
2023/05/05 01:13:02;;;;;;;;;1.00;1.00;;;;;17.91;56.15;101234.56;4979306;28;45316;-72
2023/05/05 01:15:39;;;;;;;;;1.00;1.00;;;;;17.87;57.09;101224.34;4980664;28;45207;-69
2023/05/05 01:18:28;;;;;;;;;2.67;1.00;;;;;17.90;56.90;101235.59;4977752;28;45561;-71
2023/05/05 01:21:12;;;;;;;;;1.00;1.00;;;;;17.84;57.20;101236.31;4978130;28;46583;-72
2023/05/05 01:23:49;;;;;;;;;0.00;0.00;;;;;17.79;57.34;101222.53;4978082;28;45564;-73
2023/05/05 01:26:31;;;;;;;;;0.50;0.50;;;;;17.72;57.57;101207.31;4975458;28;45474;-71
2023/05/05 01:29:21;;;;;;;;;1.00;1.00;;;;;17.79;57.61;101219.03;4977660;28;45480;-71
2023/05/05 01:31:56;;;;;;;;;2.00;0.25;;;;;17.13;57.55;101102.19;4949828;28;46410;-71
2023/05/05 01:34:26;;;;;;;;;0.00;0.00;;;;;17.74;57.79;101213.34;4975808;28;45409;-71
2023/05/05 01:37:07;;;;;;;;;1.00;1.00;;;;;17.49;58.06;101177.72;4977625;28;45289;-73
2023/05/05 01:39:33;;;;;;;;;0.67;0.67;;;;;17.68;57.85;101198.78;4978076;28;45313;-72
2023/05/05 01:42:05;;;;;;;;;0.75;0.75;;;;;17.68;58.28;101204.16;4977562;28;46653;-71
2023/05/05 01:44:33;;;;;;;;;2.00;2.00;;;;;17.58;58.27;101188.22;4976233;28;46183;-70
2023/05/05 01:47:00;;;;;;;;;1.00;1.00;;;;;17.58;58.42;101176.63;4977730;28;45446;-72
2023/05/05 01:49:27;;;;;;;;;2.00;1.00;;;;;17.42;58.49;101149.84;4977916;28;45423;-71
2023/05/05 01:51:55;;;;;;;;;1.00;1.00;;;;;17.60;58.66;101191.56;4978076;28;45490;-71
2023/05/05 01:54:23;;;;;;;;;1.33;1.00;;;;;17.49;58.66;101177.72;4976236;28;45427;-71
2023/05/05 01:56:52;;;;;;;;;1.75;0.75;;;;;17.32;58.83;101161.69;4977620;28;45491;-70
2023/05/05 01:59:19;;;;;;;;;2.33;2.00;;;;;17.54;58.67;101183.38;4977780;28;45259;-73
2023/05/05 02:01:47;;;;;;;;;2.75;1.75;;;;;17.42;58.95;101182.97;4975997;28;46526;-70
2023/05/05 02:04:16;;;;;;;;;1.33;0.67;;;;;15.71;59.01;100914.53;4977470;28;45359;-70
2023/05/05 02:06:46;;;;;;;;;1.00;1.00;;;;;17.46;59.29;101204.94;4976119;28;45254;-73
2023/05/05 02:09:13;;;;;;;;;1.00;1.00;;;;;17.38;59.37;101192.38;4976373;28;45707;-72
2023/05/05 02:11:39;;;;;;;;;0.00;0.00;;;;;17.41;59.72;101204.63;4987729;28;48460;-72
2023/05/05 02:14:07;;;;;;;;;1.33;1.00;;;;;17.34;59.54;101189.22;4997013;28;45481;-72
2023/05/05 02:16:36;;;;;;;;;2.00;2.00;;;;;17.48;59.76;101200.22;4997975;28;45490;-71
2023/05/05 02:19:05;;;;;;;;;1.00;1.00;;;;;17.31;59.40;101176.13;5000799;28;45309;-70
2023/05/05 02:21:32;;;;;;;;;2.67;1.33;;;;;16.78;59.65;101092.81;5000416;28;46933;-71
2023/05/05 02:23:58;;;;;;;;;3.33;2.00;;;;;16.89;59.50;101124.66;4998815;28;45593;-72
2023/05/05 02:26:25;;;;;;;;;1.00;1.00;;;;;17.31;59.71;101205.69;5000148;28;45450;-72
2023/05/05 02:29:08;;;;;;;;;1.00;1.00;;;;;17.44;59.76;101229.31;5000269;28;45316;-71
2023/05/05 02:31:40;;;;;;;;;4.33;1.00;;;;;17.38;59.99;101231.84;4999916;28;46858;-70
2023/05/05 02:34:07;;;;;;;;;0.50;0.50;;;;;17.10;60.76;101200.09;4998794;28;45991;-72
2023/05/05 02:36:36;;;;;;;;;2.67;1.00;;;;;16.66;60.70;101116.53;4998689;28;45685;-71
2023/05/05 02:39:20;;;;;;;;;2.00;1.00;;;;;17.15;60.88;101208.47;5000563;28;45582;-71
2023/05/05 02:41:48;;;;;;;;;2.00;2.00;;;;;17.14;61.11;101209.47;4999220;28;45355;-72
2023/05/05 02:44:15;;;;;;;;;1.67;1.00;;;;;17.33;60.83;101229.72;4999718;28;45499;-71
2023/05/05 02:46:41;;;;;;;;;1.00;1.00;;;;;16.83;60.80;101130.75;5000075;28;45241;-70
2023/05/05 02:49:07;;;;;;;;;1.00;1.00;;;;;17.36;61.02;101221.28;4998738;28;45305;-72
2023/05/05 02:51:32;;;;;;;;;1.00;1.00;;;;;17.25;60.83;101209.09;4999878;28;45507;-71
2023/05/05 02:53:58;;;;;;;;;2.33;1.33;;;;;17.42;60.68;101241.22;4998733;28;45290;-72
2023/05/05 02:56:47;;;;;;;;;0.00;0.00;;;;;17.36;60.36;101204.31;5000101;28;45339;-73
2023/05/05 02:59:31;;;;;;;;;3.75;2.00;;;;;17.42;60.79;101227.78;5001552;28;45261;-70
2023/05/05 03:02:06;;;;;;;;;3.00;2.00;;;;;17.38;60.67;101229.16;4999364;28;47753;-70
2023/05/05 03:04:45;;;;;;;;;3.00;1.33;;;;;17.31;60.87;101224.50;5000822;28;46426;-71
2023/05/05 03:07:19;;;;;;;;;1.00;1.00;;;;;17.37;60.60;101217.59;5001003;28;45360;-71
2023/05/05 03:09:54;;;;;;;;;2.00;2.00;;;;;17.36;60.50;101213.22;5000224;28;45594;-70
2023/05/05 03:12:26;;;;;;;;;1.00;1.00;;;;;17.36;60.50;101204.31;5017006;28;46590;-71
2023/05/05 03:14:54;;;;;;;;;3.00;2.00;;;;;17.37;60.43;101211.38;5001473;28;45512;-71
2023/05/05 03:17:23;;;;;;;;;2.00;2.00;;;;;16.84;60.46;101103.72;5001542;28;45397;-71
2023/05/05 03:19:50;;;;;;;;;2.00;2.00;;;;;17.33;60.37;101200.16;5019720;28;45351;-72
2023/05/05 03:22:15;;;;;;;;;1.33;1.33;;;;;17.27;60.57;101190.94;5001253;28;47744;-70
2023/05/05 03:24:41;;;;;;;;;3.00;3.00;;;;;17.25;60.35;101187.59;5019171;28;45329;-70
2023/05/05 03:27:06;;;;;;;;;2.67;2.67;;;;;17.32;60.29;101202.00;5018692;28;45437;-71
2023/05/05 03:29:31;;;;;;;;;2.00;2.00;;;;;17.26;60.65;101210.78;5019730;28;45318;-72
2023/05/05 03:31:57;;;;;;;;;4.33;3.00;;;;;17.08;60.88;101195.91;5001540;28;47565;-71
2023/05/05 03:34:22;;;;;;;;;3.67;2.00;;;;;17.23;60.80;101242.53;5019490;28;45273;-72
2023/05/05 03:36:48;;;;;;;;;2.00;2.00;;;;;17.25;60.66;101227.91;5019744;28;45631;-70
2023/05/05 03:39:13;;;;;;;;;3.67;2.00;;;;;17.23;60.67;101229.09;5003291;28;45307;-71
2023/05/05 03:41:38;;;;;;;;;3.00;2.00;;;;;17.21;60.86;101240.00;5002445;28;48440;-73
2023/05/05 03:44:04;;;;;;;;;1.00;1.00;;;;;17.16;60.59;101236.16;5001142;28;45968;-71
2023/05/05 03:46:29;;;;;;;;;2.00;2.00;;;;;17.13;60.81;101253.47;5001096;28;45452;-71
2023/05/05 03:48:55;;;;;;;;;2.00;2.00;;;;;17.10;60.73;101232.34;5001047;28;45267;-72
2023/05/05 03:51:22;;;;;;;;;1.00;1.00;;;;;17.06;60.95;101235.56;5000746;28;46226;-71
2023/05/05 03:53:47;;;;;;;;;3.33;2.33;;;;;16.53;60.57;101143.91;5019099;28;45234;-71
2023/05/05 03:56:12;;;;;;;;;2.00;1.00;;;;;17.03;60.92;101232.22;5019104;28;45304;-71
2023/05/05 03:58:37;;;;;;;;;1.67;1.33;;;;;17.16;60.86;101250.44;5001012;28;45286;-71
2023/05/05 04:01:03;;;;;;;;;2.00;2.00;;;;;17.14;61.04;101251.63;5018414;28;45501;-72
2023/05/05 04:03:29;;;;;;;;;3.33;2.00;;;;;17.12;61.32;101246.44;5000948;28;45375;-72
2023/05/05 04:05:54;;;;;;;;;1.00;1.00;;;;;17.03;61.08;101237.59;5019297;28;45381;-72
2023/05/05 04:08:20;;;;;;;;;2.00;1.00;;;;;17.13;60.92;101249.97;5019233;28;45316;-73
2023/05/05 04:10:45;;;;;;;;;2.00;2.00;;;;;17.18;61.10;101261.84;5018202;28;45423;-72
2023/05/05 04:13:10;;;;;;;;;3.00;2.00;;;;;16.99;60.96;101219.28;5000570;28;45340;-69
2023/05/05 04:15:36;;;;;;;;;1.33;1.33;;;;;17.18;61.16;101250.25;5018478;28;45351;-70
2023/05/05 04:18:01;;;;;;;;;3.67;2.00;;;;;17.02;61.38;101235.06;5000679;28;45441;-73
2023/05/05 04:20:27;;;;;;;;;1.00;1.00;;;;;16.79;61.19;101201.91;5000379;28;48650;-72
2023/05/05 04:22:52;;;;;;;;;2.00;2.00;;;;;16.92;61.04;101215.63;5000423;28;45504;-71
2023/05/05 04:25:17;;;;;;;;;3.00;2.00;;;;;17.29;61.39;101276.75;5000699;28;45460;-71
2023/05/05 04:27:43;;;;;;;;;2.33;2.33;;;;;17.32;61.19;101279.09;5018409;28;45600;-74
2023/05/05 04:30:09;;;;;;;;;1.33;1.33;;;;;16.59;61.30;101164.69;5017874;28;46275;-73
2023/05/05 04:32:34;;;;;;;;;2.33;1.00;;;;;17.19;61.78;101260.84;5018085;28;45165;-73
2023/05/05 04:34:59;;;;;;;;;3.67;3.67;;;;;17.31;62.39;101280.94;5018141;28;45611;-75
2023/05/05 04:37:25;;;;;;;;;2.67;2.00;;;;;17.22;62.61;101273.06;5000283;28;45245;-72
2023/05/05 04:39:50;;;;;;;;;5.33;3.33;;;;;17.22;63.07;101265.88;4999489;28;47569;-72
2023/05/05 04:42:16;;;;;;;;;5.67;4.00;;;;;17.24;63.94;101282.66;4999986;28;51273;-71
2023/05/05 04:44:41;;;;;;;;;3.67;2.67;;;;;17.25;63.85;101284.34;5000044;28;45225;-72
2023/05/05 04:47:07;;;;;;;;;3.00;3.00;;;;;17.22;64.02;101273.06;5017855;28;45558;-72
2023/05/05 04:49:32;;;;;;;;;1.33;1.33;;;;;17.19;63.94;101271.59;5017944;28;45586;-71
2023/05/05 04:51:57;;;;;;;;;2.33;2.00;;;;;16.93;64.11;101234.25;5018113;28;45263;-72
2023/05/05 04:54:23;;;;;;;;;2.50;2.50;;;;;17.05;64.34;101258.91;5018669;28;45242;-72
2023/05/05 04:56:48;;;;;;;;;3.33;1.33;;;;;17.21;64.64;101280.31;5000857;28;45525;-72
2023/05/05 04:59:14;;;;;;;;;2.00;2.00;;;;;17.09;64.89;101270.97;5017457;28;45253;-71
2023/05/05 05:01:40;;;;;;;;;2.33;2.33;;;;;16.49;64.98;101179.31;5017276;28;45305;-73
2023/05/05 05:04:06;;;;;;;;;3.00;3.00;;;;;17.20;65.28;101296.59;4999497;28;45419;-73
2023/05/05 05:06:32;;;;;;;;;4.00;2.00;;;;;16.61;64.75;101210.13;5017849;28;45515;-72
2023/05/05 05:08:57;;;;;;;;;2.00;2.00;;;;;17.12;65.44;101296.66;5017157;28;46331;-70
2023/05/05 05:11:22;;;;;;;;;2.00;2.00;;;;;17.13;65.66;101291.09;4998943;28;45326;-71
2023/05/05 05:13:48;;;;;;;;;1.00;1.00;;;;;16.99;65.67;101275.69;5017061;28;45448;-70
2023/05/05 05:16:14;;;;;;;;;2.00;2.00;;;;;16.79;66.40;101244.84;4999801;28;45269;-74
2023/05/05 05:18:39;;;;;;;;;3.33;3.00;;;;;17.06;66.23;101282.06;5017346;28;46336;-72
2023/05/05 05:21:05;;;;;;;;;5.00;2.00;;;;;17.01;66.59;101271.81;4999392;28;45377;-72
2023/05/05 05:23:30;;;;;;;;;2.67;2.00;;;;;17.16;67.21;101296.13;5017618;28;45660;-71
2023/05/05 05:25:56;;;;;;;;;3.00;3.00;;;;;16.40;66.89;101176.63;4999348;28;45230;-70
2023/05/05 05:28:21;;;;;;;;;4.33;2.00;;;;;17.11;66.71;101301.19;5017370;28;46395;-72
2023/05/05 05:30:46;;;;;;;;;2.00;2.00;;;;;17.16;67.14;101301.50;5017588;28;45273;-70
2023/05/05 05:33:12;;;;;;;;;4.00;4.00;;;;;17.09;66.97;101299.69;5018503;28;45479;-72
2023/05/05 05:35:38;;;;;;;;;2.33;1.00;;;;;17.06;66.87;101308.09;5001503;28;45573;-73
2023/05/05 05:38:03;;;;;;;;;4.00;1.67;;;;;17.03;66.98;101298.53;4999269;28;47990;-71
2023/05/05 05:40:29;;;;;;;;;3.00;3.00;;;;;17.09;66.99;101305.88;4999134;28;46494;-70
2023/05/05 05:42:54;;;;;;;;;2.00;2.00;;;;;17.12;67.32;101310.06;5017329;28;45452;-73
2023/05/05 05:45:20;;;;;;;;;4.00;3.67;;;;;16.77;67.25;101246.88;5017416;28;45377;-73
2023/05/05 05:47:46;;;;;;;;;2.00;2.00;;;;;17.09;67.30;101305.06;4999327;28;46523;-71
2023/05/05 05:50:11;;;;;;;;;3.00;3.00;;;;;17.06;67.29;101295.50;5013462;28;45448;-80
2023/05/05 05:52:36;;;;;;;;;1.67;1.67;;;;;17.03;67.44;101293.16;5015202;28;45400;-72
2023/05/05 05:55:03;;;;;;;;;2.33;1.00;;;;;17.10;67.70;101312.94;5017357;28;45468;-72
2023/05/05 05:57:29;;;;;;;;;6.00;4.00;;;;;16.64;67.97;101232.13;5016494;28;45615;-70
2023/05/05 05:59:54;;;;;;;;;2.00;2.00;;;;;16.47;67.85;101217.06;5015490;28;45286;-73
2023/05/05 06:02:19;;;;;;;;;3.67;2.00;;;;;17.03;67.59;101312.81;5015385;28;45498;-70
2023/05/05 06:04:46;;;;;;;;;1.00;1.00;;;;;17.10;67.67;101328.22;4999067;28;45468;-71
2023/05/05 06:07:11;;;;;;;;;2.67;2.67;;;;;17.10;67.91;101321.00;4997600;28;48512;-73
2023/05/05 06:09:37;;;;;;;;;1.00;1.00;;;;;17.13;68.04;101334.09;5014959;28;45412;-73
2023/05/05 06:12:02;;;;;;;;;2.00;2.00;;;;;17.18;67.95;101349.69;5016304;28;45474;-74
2023/05/05 06:14:28;;;;;;;;;5.67;3.67;;;;;17.15;68.01;101347.34;5015893;28;45502;-75
2023/05/05 06:16:54;;;;;;;;;4.67;4.00;;;;;16.94;67.69;101304.91;4997666;28;46226;-69
2023/05/05 06:19:19;;;;;;;;;2.33;2.00;;;;;17.16;67.83;101349.84;5016615;28;45418;-75
2023/05/05 06:21:44;;;;;;;;;4.00;2.00;;;;;17.12;67.84;101351.22;5016344;28;45373;-74
2023/05/05 06:24:10;;;;;;;;;1.67;1.67;;;;;17.11;67.71;101351.38;5017637;28;45365;-75
2023/05/05 06:26:35;;;;;;;;;3.67;1.67;;;;;16.96;67.88;101327.91;4997629;28;59856;-72
2023/05/05 06:29:00;;;;;;;;;4.00;3.00;;;;;17.08;68.50;101349.88;5016076;28;45438;-75
2023/05/05 06:31:26;;;;;;;;;5.00;4.00;;;;;16.97;68.57;101339.50;4997344;28;45662;-73
2023/05/05 06:33:51;;;;;;;;;3.33;3.33;;;;;16.99;68.09;101337.47;4998706;28;45673;-73
2023/05/05 06:36:16;;;;;;;;;5.67;4.00;;;;;16.73;68.08;101306.31;4998345;28;47925;-72
2023/05/05 06:38:42;;;;;;;;;3.00;2.67;;;;;16.94;68.13;101338.00;5014458;28;45815;-74
2023/05/05 06:41:07;;;;;;;;;3.67;3.67;;;;;16.03;68.29;101201.38;5014918;28;59277;-72
2023/05/05 06:43:33;;;;;;;;;8.67;8.67;;;;;16.86;68.42;101315.69;5015828;28;45433;-76
2023/05/05 06:45:58;;;;;;;;;2.00;2.00;;;;;16.84;68.41;101306.97;4998075;28;46894;-75
2023/05/05 06:48:23;;;;;;;;;2.00;2.00;;;;;16.96;68.09;101327.06;5013420;28;45606;-70
2023/05/05 06:50:49;;;;;;;;;3.00;3.00;;;;;17.05;68.02;101312.63;4998145;28;45625;-74
2023/05/05 06:53:14;;;;;;;;;2.67;2.67;;;;;17.14;67.70;101316.94;5016645;28;45252;-73
2023/05/05 06:55:46;;;;;;;;;5.00;3.00;;;;;17.15;67.76;101315.09;4998249;28;47091;-72
2023/05/05 06:58:12;;;;;;;;;4.00;3.00;;;;;17.13;67.26;101303.69;4998140;28;46163;-73
2023/05/05 07:00:40;;;;;;;;;4.67;3.00;;;;;17.30;67.70;101327.66;4998264;28;45580;-71
2023/05/05 07:03:06;;;;;;;;;4.00;2.33;;;;;17.29;66.95;101312.53;5001523;28;45431;-73
2023/05/05 07:05:32;;;;;;;;;5.67;4.33;;;;;17.36;67.51;101319.91;5019340;28;45403;-71
2023/05/05 07:07:57;;;;;;;;;4.33;4.33;;;;;17.50;66.94;101335.31;5001546;28;45431;-74
2023/05/05 07:10:24;;;;;;;;;2.67;2.67;;;;;17.07;66.81;101258.72;5001516;28;45297;-75
2023/05/05 07:12:50;;;;;;;;;4.33;3.33;;;;;17.28;66.43;101292.06;5018469;28;45726;-75
2023/05/05 07:15:16;;;;;;;;;2.00;2.00;;;;;17.49;66.41;101331.78;5001801;28;48751;-72
2023/05/05 07:17:42;;;;;;;;;3.33;3.33;;;;;17.56;66.65;101339.97;5001401;28;45450;-72
2023/05/05 07:20:08;;;;;;;;;2.33;2.33;;;;;17.53;66.22;101337.63;5002617;28;45345;-72
2023/05/05 07:22:34;;;;;;;;;3.00;2.67;;;;;17.57;66.07;101352.41;4994219;28;45601;-72
2023/05/05 07:25:00;;;;;;;;;3.00;1.33;;;;;17.69;65.96;101364.50;4999358;28;47606;-74
2023/05/05 07:27:26;;;;;;;;;2.00;1.67;;;;;17.74;66.29;101363.94;5001343;28;46396;-74
2023/05/05 07:29:51;;;;;;;;;3.00;2.00;;;;;17.78;66.18;101343.75;5002200;28;45565;-73
2023/05/05 07:32:16;;;;;;;;;4.33;3.33;;;;;17.76;66.23;101335.88;5008472;28;45605;-71
2023/05/05 07:34:42;;;;;;;;;3.00;3.00;;;;;17.65;65.78;101312.03;4981248;28;46952;-72
2023/05/05 07:37:07;;;;;;;;;4.00;4.00;;;;;17.82;65.66;101328.94;4999448;28;45254;-73
2023/05/05 07:39:33;;;;;;;;;1.67;1.00;;;;;17.45;65.70;101279.38;4999377;28;45285;-73
2023/05/05 07:41:58;;;;;;;;;2.00;2.00;;;;;17.72;65.45;101333.72;4999083;28;45279;-73
2023/05/05 07:44:24;;;;;;;;;3.00;3.00;;;;;17.36;65.26;101244.63;4997322;28;47922;-73
2023/05/05 07:46:50;;;;;;;;;4.00;4.00;;;;;17.80;65.22;101302.22;4992853;28;45845;-71
2023/05/05 07:49:15;;;;;;;;;3.00;3.00;;;;;17.89;64.71;101308.41;4981494;28;45344;-74
2023/05/05 07:51:41;;;;;;;;;2.67;2.67;;;;;17.84;64.65;101317.00;4999129;28;45453;-76
2023/05/05 07:54:07;;;;;;;;;4.00;4.00;;;;;17.96;65.34;101336.25;4981303;28;47748;-73
2023/05/05 07:56:32;;;;;;;;;2.00;2.00;;;;;17.82;64.90;101316.34;4999779;28;45478;-73
2023/05/05 07:58:58;;;;;;;;;7.00;2.00;;;;;17.39;65.06;101252.34;4981367;28;45521;-73
2023/05/05 08:01:23;;;;;;;;;5.00;3.00;;;;;17.87;64.80;101337.34;5016097;28;45270;-71
2023/05/05 08:03:48;;;;;;;;;2.67;2.67;;;;;17.92;65.14;101348.38;5000938;28;46999;-75
2023/05/05 08:06:15;;;;;;;;;2.33;2.33;;;;;17.76;64.77;101326.97;5000806;28;45551;-73
2023/05/05 08:08:41;;;;;;;;;2.00;2.00;;;;;17.90;64.83;101356.63;5019236;28;45460;-73
2023/05/05 08:11:06;;;;;;;;;2.00;1.00;;;;;17.54;65.43;101285.53;5001398;28;45338;-73
2023/05/05 08:13:32;;;;;;;;;4.00;4.00;;;;;18.27;65.01;101368.53;5019655;28;45551;-73
2023/05/05 08:15:57;;;;;;;;;7.00;5.33;;;;;18.23;64.44;101375.28;5018906;28;45230;-75
2023/05/05 08:18:23;;;;;;;;;3.33;3.33;;;;;18.36;64.18;101380.88;4996858;28;45228;-74
2023/05/05 08:20:49;;;;;;;;;3.00;3.00;;;;;18.52;64.06;101380.78;4981578;28;45548;-72
2023/05/05 08:23:15;;;;;;;;;5.33;4.00;;;;;18.60;64.02;101373.63;4998362;28;46329;-72
2023/05/05 08:25:40;;;;;;;;;3.67;3.00;;;;;18.66;63.15;101379.19;4980181;28;45994;-73
2023/05/05 08:28:06;;;;;;;;;3.00;3.00;;;;;18.57;63.00;101355.16;4981067;28;45340;-72
2023/05/05 08:30:31;;;;;;;;;4.33;4.33;;;;;18.55;62.47;101356.19;4981231;28;45440;-70
2023/05/05 08:32:57;;;;;;;;;4.33;4.00;;;;;18.53;62.48;101352.00;4981931;28;48138;-72
2023/05/05 08:35:23;;;;;;;;;1.75;0.50;;;;;18.17;62.82;101271.03;4984481;28;46270;-73
2023/05/05 08:37:50;;;;;;;;;5.67;4.67;;;;;18.80;61.80;101354.13;4980629;28;46098;-75
2023/05/05 08:40:16;;;;;;;;;4.00;3.00;;;;;17.82;61.48;101195.31;4993721;28;45511;-73
2023/05/05 08:42:44;;;;;;;;;3.75;2.75;;;;;19.26;60.51;101378.25;5016311;28;47594;-73
2023/05/05 08:45:10;;;;;;;;;4.75;2.00;;;;;19.04;59.99;101271.38;4999684;28;45487;-77
2023/05/05 08:47:36;;;;;;;;;3.00;3.00;;;;;20.34;56.92;101378.38;5018078;28;45448;-73
2023/05/05 08:50:02;;;;;;;;;5.00;5.00;;;;;20.83;54.98;101364.09;5019652;28;45313;-71
2023/05/05 08:52:35;;;;;;;;;3.00;3.00;;;;;21.13;53.54;101356.59;5018375;28;46236;-73
2023/05/05 08:55:11;;;;;;;;;3.50;2.00;;;;;21.79;52.13;101367.78;4999556;28;46617;-73
2023/05/05 08:57:55;;;;;;;;;2.00;2.00;;;;;22.37;50.14;101370.03;5017627;28;45410;-73
2023/05/05 09:00:21;;;;;;;;;3.00;1.25;;;;;22.55;48.92;101364.84;5000156;28;45335;-73
2023/05/05 09:02:48;;;;;;;;;1.25;1.25;;;;;22.89;49.10;101365.72;5017098;28;45803;-73
2023/05/05 09:05:13;;;;;;;;;3.00;3.00;;;;;23.52;47.42;101368.72;4998722;28;45611;-71
2023/05/05 09:07:42;;;;;;;;;2.00;1.00;;;;;23.76;44.87;101354.44;5016436;28;45317;-74
2023/05/05 09:10:10;;;;;;;;;1.00;1.00;;;;;24.05;44.99;101363.09;4998867;28;45543;-74
2023/05/05 09:12:40;;;;;;;;;1.00;1.00;;;;;24.50;43.45;101361.97;5016980;28;46120;-71
2023/05/05 09:15:11;;;;;;;;;1.00;1.00;;;;;25.31;42.70;101357.47;4999634;28;45591;-70
2023/05/05 09:17:37;;;;;;;;;1.00;1.00;;;;;26.22;40.18;101348.34;5012039;28;45409;-73
2023/05/05 09:20:06;;;;;;;;;3.00;3.00;;;;;27.00;38.21;101339.13;5012970;28;45314;-73
2023/05/05 09:22:32;;;;;;;;;0.50;0.50;;;;;27.83;36.78;101346.91;4999454;28;46458;-73
2023/05/05 09:24:57;;;;;;;;;1.00;1.00;;;;;29.23;34.21;101343.28;5008451;28;45302;-75
2023/05/05 09:27:23;;;;;;;;;0.00;0.00;;;;;30.53;31.41;101357.91;4999001;28;45206;-73
2023/05/05 09:29:49;;;;;;;;;0.00;0.00;;;;;31.69;29.56;101343.25;5017463;28;45312;-72
2023/05/05 09:32:17;;;;;;;;;0.25;0.25;;;;;32.70;28.55;101264.66;4999016;28;49070;-75
2023/05/05 09:34:42;;;;;;;;;5.00;5.00;;;;;34.28;26.16;101349.41;5016981;28;45361;-74
2023/05/05 09:37:08;;;;;;;;;1.25;1.25;;;;;35.15;24.99;101343.94;4999436;28;45534;-75
2023/05/05 09:39:33;;;;;;;;;1.67;1.67;;;;;35.97;23.43;101337.06;5017373;28;45221;-75
2023/05/05 09:41:59;;;;;;;;;1.00;1.00;;;;;35.49;23.58;101336.34;4998781;28;47545;-74
2023/05/05 09:44:38;;;;;;;;;1.00;0.00;;;;;35.17;23.70;101325.94;4998958;28;45609;-72
2023/05/05 09:47:04;;;;;;;;;1.25;1.00;;;;;34.85;25.07;101351.44;5016868;28;45513;-74
2023/05/05 09:49:29;;;;;;;;;2.00;2.00;;;;;34.69;25.21;101345.22;4999306;28;45530;-73
2023/05/05 09:51:56;;;;;;;;;2.00;1.00;;;;;34.51;24.83;101336.84;4998959;28;47551;-74
2023/05/05 09:54:28;;;;;;;;;2.00;1.00;;;;;34.23;24.55;101302.50;5016956;28;45566;-74
2023/05/05 09:56:55;;;;;;;;;2.00;2.00;;;;;34.22;25.14;101320.19;5016721;28;45538;-76
2023/05/05 09:59:22;;;;;;;;;1.00;1.00;;;;;33.15;25.68;101244.41;4993635;28;45320;-74
2023/05/05 10:01:49;;;;;;;;;1.33;1.33;;;;;32.79;26.34;101298.78;5001920;28;46638;-74
2023/05/05 10:04:29;;;;;;;;;1.50;1.50;;;;;31.87;27.09;101324.66;4998790;28;46460;-75
2023/05/05 10:06:58;;;;;;;;;1.00;1.00;;;;;31.16;27.81;101312.22;5016877;28;45479;-73
2023/05/05 10:09:26;;;;;;;;;1.00;1.00;;;;;30.17;29.29;101281.88;4999253;28;45486;-73
2023/05/05 10:11:52;;;;;;;;;3.00;2.50;;;;;29.63;30.45;101299.19;4994085;28;48472;-75
2023/05/05 10:14:19;;;;;;;;;0.75;0.75;;;;;28.52;31.51;101221.84;5016450;28;45511;-72
2023/05/05 10:16:47;;;;;;;;;1.33;1.33;;;;;27.67;31.90;101232.97;4998469;28;45457;-73
2023/05/05 10:19:15;;;;;;;;;2.00;2.00;;;;;27.21;33.88;101298.41;4989199;28;45321;-74
2023/05/05 10:21:43;;;;;;;;;1.25;1.25;;;;;25.62;35.00;101144.91;5016367;28;46893;-75
2023/05/05 10:24:15;;;;;;;;;3.00;2.00;;;;;25.59;35.95;101210.72;4998571;28;45387;-74
2023/05/05 10:26:41;;;;;;;;;1.25;1.25;;;;;25.78;36.83;101298.69;5016421;28;45220;-73
2023/05/05 10:29:15;;;;;;;;;1.00;0.00;;;;;25.44;36.94;101292.00;5016567;28;45230;-75
2023/05/05 10:31:46;;;;;;;;;1.00;1.00;;;;;25.05;37.56;101282.44;4997880;28;46617;-73
2023/05/05 10:34:38;;;;;;;;;1.00;1.00;;;;;24.54;38.03;101268.03;4997271;28;45427;-73
2023/05/05 10:37:05;;;;;;;;;1.50;1.00;;;;;24.44;39.33;101286.75;5018269;28;45392;-72
2023/05/05 10:39:31;;;;;;;;;0.25;0.25;;;;;24.18;39.51;101281.47;5020339;28;45428;-74
2023/05/05 10:42:00;;;;;;;;;3.50;2.50;;;;;24.01;39.73;101302.91;5019201;28;45562;-72
2023/05/05 10:44:29;;;;;;;;;4.75;2.75;;;;;23.84;40.50;101291.75;5001782;28;45301;-72
2023/05/05 10:46:56;;;;;;;;;2.00;2.00;;;;;23.75;40.94;101287.63;5009420;28;45472;-72
2023/05/05 10:49:33;;;;;;;;;0.75;0.75;;;;;23.73;40.91;101272.59;4989452;28;45511;-73
2023/05/05 10:52:16;;;;;;;;;1.00;1.00;;;;;23.34;41.46;101198.47;4981811;28;47902;-71
2023/05/05 10:54:54;;;;;;;;;5.00;3.67;;;;;23.84;41.29;101285.50;4981923;28;45417;-72
2023/05/05 10:57:23;;;;;;;;;2.00;0.25;;;;;23.78;41.27;101279.03;4999619;28;45508;-73
2023/05/05 10:59:49;;;;;;;;;2.00;2.00;;;;;23.13;41.60;101196.91;5010291;28;45282;-74
2023/05/05 11:02:28;;;;;;;;;5.67;5.67;;;;;23.30;42.54;101278.63;5001093;28;48562;-75
2023/05/05 11:05:15;;;;;;;;;3.00;3.00;;;;;23.12;43.02;101278.47;5001468;28;46554;-73
2023/05/05 11:07:45;;;;;;;;;0.00;0.00;;;;;23.18;43.35;101275.72;5001979;28;45294;-73
2023/05/05 11:10:13;;;;;;;;;1.00;1.00;;;;;23.04;43.01;101247.00;5020403;28;45443;-74
2023/05/05 11:12:50;;;;;;;;;2.00;1.00;;;;;21.01;44.33;100935.63;5000024;28;48853;-73
2023/05/05 11:15:25;;;;;;;;;0.00;0.00;;;;;22.89;43.75;101254.56;4981954;28;45327;-74
2023/05/05 11:17:51;;;;;;;;;2.50;1.00;;;;;22.84;44.61;101257.09;4981776;28;45290;-72
2023/05/05 11:20:16;;;;;;;;;0.00;0.00;;;;;22.48;44.23;101196.03;4995494;28;45311;-71
2023/05/05 11:23:03;;;;;;;;;1.00;1.00;;;;;22.95;43.68;101243.69;5016457;28;45535;-73
2023/05/05 11:25:42;;;;;;;;;1.00;1.00;;;;;23.00;43.67;101243.88;5019016;28;45569;-72
2023/05/05 11:28:11;;;;;;;;;0.25;0.25;;;;;23.00;43.10;101240.31;4994825;28;45428;-72
2023/05/05 11:30:55;;;;;;;;;1.00;0.00;;;;;23.05;43.61;101249.50;4990281;28;45473;-73